Baudette International Airport Baudette US
ICAO: KBDE
IATA: BDE
Category: Medium
Scheduled Services: No

Elevation: 1086 ft
TransAlt. 18000 ft.

Airport Communications:
ASOS:126.775
PRINCETON RDO:122.4
CTAF/UNICOM:122.8

KBDE Zoom In..

If you have problems with the map follow the link
https://www.worldairports.se/pages/airport.php?
ICAO=KBDE

Runways:

(A) RW 12 length 5499 ft width 100 ft
---- / hdg 117

(B) RW 30 length 5499 ft width 100 ft
ILS 108.30 / hdg 297

Location; KBDE
Day. 12 / Time. 08.53 Zulu
* Altimeter: 30.26
* Temperature: -19° c. 2.2°f.
* Wind from: 100° Speed 05 kn.
Dewpoint: -23° c.
Visibility: 10 Statute Miles.
Clouds: Overcast 11000 ft.

KBDE 120853Z AUTO 10005KT 10SM OVC110 M19/M23 A3026 RMK AO2 SLP279 T11891228 56011


Wind From 100°
Speed 05 kn.

 
 
jpsmedia worldairports.se 2019   terms of use